createdAt,value
2022-08-23T00:02:20.318Z,100.00
2022-08-23T00:05:10.749Z,100.00
2022-08-23T00:07:59.107Z,100.00
2022-08-23T00:10:45.762Z,100.00
2022-08-23T00:13:47.215Z,100.00
2022-08-23T00:16:36.326Z,100.00
2022-08-23T00:19:24.414Z,100.00
2022-08-23T00:22:11.806Z,100.00
2022-08-23T00:25:02.064Z,100.00
2022-08-23T00:27:48.594Z,100.00
2022-08-23T00:30:35.475Z,100.00
2022-08-23T00:33:22.358Z,100.00
2022-08-23T00:36:09.298Z,100.00
2022-08-23T00:38:57.877Z,100.00
2022-08-23T00:41:47.527Z,100.00
2022-08-23T00:44:53.012Z,100.00
2022-08-23T00:47:43.102Z,100.00
2022-08-23T00:50:36.943Z,100.00
2022-08-23T00:53:27.518Z,100.00
2022-08-23T00:56:18.021Z,100.00
2022-08-23T00:59:06.138Z,100.00
2022-08-23T01:01:54.250Z,100.00
2022-08-23T01:04:44.563Z,100.00
2022-08-23T01:07:41.413Z,100.00
2022-08-23T01:10:31.989Z,100.00
2022-08-23T01:13:23.060Z,100.00
2022-08-23T01:16:15.070Z,100.00
2022-08-23T01:19:04.018Z,100.00
2022-08-23T01:21:56.201Z,100.00
2022-08-23T01:25:06.865Z,100.00
2022-08-23T01:27:56.788Z,100.00
2022-08-23T01:30:46.400Z,100.00
2022-08-23T01:33:33.345Z,100.00
2022-08-23T01:36:22.224Z,100.00
2022-08-23T01:39:11.605Z,100.00
2022-08-23T01:42:00.005Z,100.00
2022-08-23T01:44:47.350Z,100.00
2022-08-23T01:47:34.351Z,100.00
2022-08-23T01:50:21.600Z,100.00
2022-08-23T01:53:09.192Z,100.00
2022-08-23T01:55:56.266Z,100.00
2022-08-23T01:58:45.164Z,100.00
2022-08-23T02:01:32.404Z,100.00
2022-08-23T02:04:19.328Z,100.00
2022-08-23T02:07:06.720Z,100.00
2022-08-23T02:09:53.177Z,100.00
2022-08-23T02:12:40.461Z,100.00
2022-08-23T02:15:37.048Z,100.00
2022-08-23T02:18:23.523Z,100.00
2022-08-23T02:21:11.089Z,100.00
2022-08-23T02:23:58.292Z,100.00
2022-08-23T02:26:48.201Z,100.00
2022-08-23T02:29:44.614Z,100.00
2022-08-23T02:32:33.882Z,100.00
2022-08-23T02:35:20.766Z,100.00
2022-08-23T02:38:09.224Z,100.00
2022-08-23T02:41:00.960Z,100.00
2022-08-23T02:43:53.176Z,100.00
2022-08-23T02:46:42.104Z,100.00
2022-08-23T02:49:31.102Z,100.00
2022-08-23T02:52:17.498Z,100.00
2022-08-23T02:55:05.103Z,100.00
2022-08-23T02:57:52.122Z,100.00
2022-08-23T03:00:39.209Z,100.00
2022-08-23T03:03:26.286Z,100.00
2022-08-23T03:06:25.349Z,100.00
2022-08-23T03:09:13.218Z,100.00
2022-08-23T03:12:00.026Z,100.00
2022-08-23T03:14:47.853Z,100.00
2022-08-23T03:17:34.517Z,100.00
2022-08-23T03:20:22.626Z,100.00
2022-08-23T03:23:12.896Z,100.00
2022-08-23T03:25:59.822Z,100.00
2022-08-23T03:28:48.885Z,100.00
2022-08-23T03:31:35.984Z,100.00
2022-08-23T03:34:30.259Z,100.00
2022-08-23T03:37:18.230Z,100.00
2022-08-23T03:40:08.442Z,100.00
2022-08-23T03:42:55.880Z,100.00
2022-08-23T03:45:44.804Z,100.00
2022-08-23T03:48:32.612Z,100.00
2022-08-23T03:51:20.312Z,100.00
2022-08-23T03:54:07.217Z,100.00
2022-08-23T03:57:00.611Z,100.00
2022-08-23T03:59:49.978Z,100.00
2022-08-23T04:02:37.557Z,100.00
2022-08-23T04:05:24.095Z,100.00
2022-08-23T04:08:11.825Z,100.00
2022-08-23T04:11:01.054Z,100.00
2022-08-23T04:13:49.047Z,100.00
2022-08-23T04:16:37.828Z,100.00
2022-08-23T04:19:25.453Z,100.00
2022-08-23T04:22:22.013Z,100.00
2022-08-23T04:25:14.090Z,100.00
2022-08-23T04:28:16.396Z,100.00
2022-08-23T04:31:05.187Z,100.00
2022-08-23T04:33:52.772Z,100.00
2022-08-23T04:36:45.979Z,100.00
2022-08-23T04:39:54.075Z,100.00
2022-08-23T04:42:41.720Z,100.00
2022-08-23T04:45:28.623Z,100.00
2022-08-23T04:48:16.694Z,100.00
2022-08-23T04:51:07.888Z,100.00
2022-08-23T04:53:57.122Z,100.00
2022-08-23T04:56:52.995Z,100.00
2022-08-23T04:59:42.885Z,100.00
2022-08-23T05:02:30.066Z,100.00
2022-08-23T05:05:18.422Z,100.00
2022-08-23T05:08:06.108Z,100.00
2022-08-23T05:10:53.114Z,100.00
2022-08-23T05:13:40.481Z,100.00
2022-08-23T05:16:29.618Z,100.00
2022-08-23T05:19:28.564Z,100.00
2022-08-23T05:22:16.629Z,100.00
2022-08-23T05:25:49.589Z,100.00
2022-08-23T05:28:53.828Z,100.00
2022-08-23T05:31:46.229Z,100.00
2022-08-23T05:34:34.904Z,100.00
2022-08-23T05:37:29.674Z,100.00
2022-08-23T05:40:16.370Z,100.00
2022-08-23T05:43:17.557Z,100.00
2022-08-23T05:46:07.872Z,100.00
2022-08-23T05:49:02.007Z,100.00
2022-08-23T05:51:51.741Z,100.00
2022-08-23T05:54:42.171Z,100.00
2022-08-23T05:58:07.546Z,100.00
2022-08-23T06:00:56.388Z,100.00
2022-08-23T06:03:44.046Z,100.00
2022-08-23T06:06:35.065Z,100.00
2022-08-23T06:09:25.386Z,100.00
2022-08-23T06:12:13.886Z,100.00
2022-08-23T06:15:00.839Z,100.00
2022-08-23T06:17:48.438Z,100.00
2022-08-23T06:20:36.321Z,100.00
2022-08-23T06:23:24.480Z,100.00
2022-08-23T06:26:12.561Z,100.00
2022-08-23T06:29:03.175Z,100.00
2022-08-23T06:31:52.458Z,100.00
2022-08-23T06:34:47.183Z,100.00
2022-08-23T06:38:03.783Z,100.00
2022-08-23T06:41:11.953Z,100.00
2022-08-23T06:44:04.072Z,100.00
2022-08-23T06:47:13.246Z,100.00
2022-08-23T06:50:00.122Z,100.00
2022-08-23T06:53:07.241Z,100.00
2022-08-23T06:56:02.284Z,100.00
2022-08-23T06:59:09.315Z,100.00
2022-08-23T07:02:15.695Z,100.00
2022-08-23T07:05:17.434Z,100.00
2022-08-23T07:08:12.174Z,100.00
2022-08-23T07:11:00.108Z,100.00
2022-08-23T07:13:48.223Z,100.00
2022-08-23T07:16:38.214Z,100.00
2022-08-23T07:19:28.996Z,100.00
2022-08-23T07:22:16.086Z,100.00
2022-08-23T07:25:03.771Z,100.00
2022-08-23T07:27:51.215Z,100.00
2022-08-23T07:30:44.539Z,100.00
2022-08-23T07:33:33.915Z,100.00
2022-08-23T07:36:31.320Z,100.00
2022-08-23T07:39:18.507Z,100.00
2022-08-23T07:42:15.943Z,100.00
2022-08-23T07:45:12.973Z,100.00
2022-08-23T07:48:02.389Z,100.00
2022-08-23T07:50:58.112Z,100.00
2022-08-23T07:53:48.100Z,100.00
2022-08-23T07:56:37.768Z,100.00
2022-08-23T07:59:32.747Z,100.00
2022-08-23T08:02:30.764Z,100.00
2022-08-23T08:05:21.749Z,100.00
2022-08-23T08:08:11.704Z,100.00
2022-08-23T08:10:58.184Z,100.00
2022-08-23T08:13:46.559Z,100.00
2022-08-23T08:16:36.287Z,100.00
2022-08-23T08:19:24.033Z,100.00
2022-08-23T08:22:22.844Z,100.00
2022-08-23T08:25:32.957Z,100.00
2022-08-23T08:28:20.028Z,100.00
2022-08-23T08:31:07.632Z,100.00
2022-08-23T08:33:54.209Z,100.00
2022-08-23T08:36:43.560Z,100.00
2022-08-23T08:39:36.246Z,100.00
2022-08-23T08:42:42.028Z,100.00
2022-08-23T08:45:39.373Z,100.00
2022-08-23T08:48:29.730Z,100.00
2022-08-23T08:51:35.234Z,100.00
2022-08-23T08:54:27.441Z,100.00
2022-08-23T08:57:25.298Z,100.00
2022-08-23T09:00:20.665Z,100.00
2022-08-23T09:03:15.206Z,100.00
2022-08-23T09:06:11.711Z,100.00
2022-08-23T09:09:14.254Z,100.00
2022-08-23T09:12:12.715Z,100.00
2022-08-23T09:15:15.236Z,100.00
2022-08-23T09:18:09.893Z,100.00
2022-08-23T09:21:01.961Z,100.00
2022-08-23T09:24:00.564Z,100.00
2022-08-23T09:27:03.310Z,100.00
2022-08-23T09:29:57.016Z,100.00
2022-08-23T09:32:45.572Z,100.00
2022-08-23T09:35:35.520Z,100.00
2022-08-23T09:38:29.970Z,100.00
2022-08-23T09:41:25.430Z,100.00
2022-08-23T09:44:30.850Z,100.00
2022-08-23T09:47:18.364Z,100.00
2022-08-23T09:50:25.488Z,100.00
2022-08-23T09:53:17.812Z,100.00
2022-08-23T09:56:14.928Z,100.00
2022-08-23T09:59:02.714Z,100.00
2022-08-23T10:02:02.374Z,100.00
2022-08-23T10:05:00.004Z,100.00
2022-08-23T10:07:56.751Z,100.00
2022-08-23T10:10:50.997Z,100.00
2022-08-23T10:13:44.786Z,100.00
2022-08-23T10:16:40.930Z,100.00
2022-08-23T10:19:38.864Z,100.00
2022-08-23T10:22:28.643Z,100.00
2022-08-23T10:25:55.332Z,100.00
2022-08-23T10:29:08.192Z,100.00
2022-08-23T10:32:00.944Z,97.78
2022-08-23T10:35:22.810Z,100.00
2022-08-23T10:38:27.595Z,100.00
2022-08-23T10:41:34.914Z,100.00
2022-08-23T10:44:27.001Z,100.00
2022-08-23T10:47:22.819Z,99.15
2022-08-23T10:50:13.666Z,97.32
2022-08-23T10:53:09.174Z,100.00
2022-08-23T10:56:05.208Z,97.20
2022-08-23T10:59:02.534Z,93.62
2022-08-23T11:01:54.612Z,93.87
2022-08-23T11:04:50.187Z,90.27
2022-08-23T11:07:56.998Z,91.18
2022-08-23T11:10:56.291Z,93.29
2022-08-23T11:13:53.937Z,91.07
2022-08-23T11:16:47.221Z,96.35
2022-08-23T11:19:52.716Z,97.18
2022-08-23T11:23:13.458Z,95.12
2022-08-23T11:26:00.343Z,88.62
2022-08-23T11:28:47.990Z,94.93
2022-08-23T11:31:39.836Z,97.25
2022-08-23T11:34:34.719Z,95.79
2022-08-23T11:38:02.266Z,91.86
2022-08-23T11:41:13.426Z,90.52
2022-08-23T11:44:26.245Z,85.91
2022-08-23T11:47:19.052Z,85.75
2022-08-23T11:50:26.129Z,85.93
2022-08-23T11:53:29.714Z,82.84
2022-08-23T11:56:56.523Z,86.11
2022-08-23T12:00:22.713Z,85.72
2022-08-23T12:03:34.775Z,83.08
2022-08-23T12:06:51.207Z,82.21
2022-08-23T12:09:58.449Z,86.37
2022-08-23T12:12:47.433Z,93.13
2022-08-23T12:16:16.683Z,87.29
2022-08-23T12:19:10.140Z,86.36
2022-08-23T12:22:08.639Z,80.73
2022-08-23T12:24:59.258Z,81.87
2022-08-23T12:27:50.953Z,85.72
2022-08-23T12:30:49.374Z,86.55
2022-08-23T12:33:48.094Z,86.57
2022-08-23T12:36:45.052Z,82.75
2022-08-23T12:39:37.132Z,79.89
2022-08-23T12:42:29.040Z,82.71
2022-08-23T12:45:22.989Z,80.92
2022-08-23T12:48:13.059Z,80.63
2022-08-23T12:51:02.252Z,75.47
2022-08-23T12:53:49.001Z,72.55
2022-08-23T12:56:37.500Z,75.04
2022-08-23T12:59:36.035Z,70.74
2022-08-23T13:02:27.046Z,74.55
2022-08-23T13:05:22.280Z,75.65
2022-08-23T13:08:12.191Z,74.38
2022-08-23T13:11:01.928Z,74.69
2022-08-23T13:13:53.689Z,71.26
2022-08-23T13:16:44.903Z,73.66
2022-08-23T13:19:33.728Z,71.87
2022-08-23T13:22:26.333Z,72.13
2022-08-23T13:25:29.854Z,72.38
2022-08-23T13:28:25.038Z,68.00
2022-08-23T13:31:12.896Z,70.10
2022-08-23T13:33:59.596Z,69.26
2022-08-23T13:36:49.059Z,71.71
2022-08-23T13:39:38.548Z,76.36
2022-08-23T13:42:35.851Z,76.73
2022-08-23T13:45:29.094Z,75.54
2022-08-23T13:48:20.173Z,74.55
2022-08-23T13:51:29.876Z,75.71
2022-08-23T13:54:17.121Z,75.61
2022-08-23T13:57:07.199Z,79.44
2022-08-23T13:59:58.989Z,79.01
2022-08-23T14:02:48.944Z,78.79
2022-08-23T14:05:37.397Z,77.77
2022-08-23T14:08:24.217Z,77.77
2022-08-23T14:11:12.220Z,81.17
2022-08-23T14:13:58.918Z,81.93
2022-08-23T14:16:46.605Z,80.71
2022-08-23T14:22:41.037Z,83.40
2022-08-23T14:25:27.867Z,84.75
2022-08-23T14:28:14.568Z,84.96
2022-08-23T14:31:02.479Z,84.31
2022-08-23T14:33:49.568Z,85.62
2022-08-23T14:36:36.367Z,86.69
2022-08-23T14:39:25.265Z,84.00
2022-08-23T14:42:13.840Z,84.69
2022-08-23T14:45:01.416Z,81.07
2022-08-23T14:47:48.702Z,85.77
2022-08-23T14:50:35.631Z,81.09
2022-08-23T14:53:26.663Z,81.36
2022-08-23T14:56:21.602Z,79.35
2022-08-23T14:59:10.339Z,80.83
2022-08-23T15:01:58.567Z,84.78
2022-08-23T15:04:45.405Z,85.11
2022-08-23T15:07:32.133Z,83.93
2022-08-23T15:13:32.898Z,83.63
2022-08-23T15:16:23.139Z,85.08
2022-08-23T15:19:14.031Z,87.45
2022-08-23T15:22:03.644Z,83.36
2022-08-23T15:25:06.545Z,86.00
2022-08-23T15:27:53.380Z,80.55
2022-08-23T15:30:41.556Z,85.10
2022-08-23T15:33:31.435Z,86.42
2022-08-23T15:36:19.217Z,88.80
2022-08-23T15:39:05.740Z,90.62
2022-08-23T15:41:52.592Z,88.92
2022-08-23T15:44:39.328Z,83.84
2022-08-23T15:47:30.545Z,82.73
2022-08-23T15:50:20.463Z,85.20
2022-08-23T15:53:07.407Z,87.18
2022-08-23T15:55:54.581Z,91.32
2022-08-23T15:58:42.180Z,85.29
2022-08-23T16:01:33.640Z,83.28
2022-08-23T16:04:21.595Z,84.75
2022-08-23T16:07:09.638Z,84.41
2022-08-23T16:09:56.495Z,84.00
2022-08-23T16:12:43.400Z,86.72
2022-08-23T16:15:30.355Z,86.39
2022-08-23T16:18:17.671Z,82.96
2022-08-23T16:21:06.242Z,87.52
2022-08-23T16:23:53.135Z,88.38
2022-08-23T16:26:43.761Z,83.89
2022-08-23T16:29:35.964Z,84.42
2022-08-23T16:32:22.444Z,87.55
2022-08-23T16:35:10.528Z,91.42
2022-08-23T16:37:58.428Z,91.79
2022-08-23T16:40:45.274Z,94.17
2022-08-23T16:43:31.942Z,95.71
2022-08-23T16:46:21.097Z,96.06
2022-08-23T16:49:07.640Z,94.42
2022-08-23T16:51:54.437Z,94.73
2022-08-23T16:54:42.767Z,90.96
2022-08-23T16:57:29.518Z,95.96
2022-08-23T17:00:16.540Z,95.31
2022-08-23T17:03:03.440Z,96.87
2022-08-23T17:05:50.066Z,98.40
2022-08-23T17:08:37.859Z,100.00
2022-08-23T17:11:29.785Z,99.41
2022-08-23T17:14:20.593Z,99.71
2022-08-23T17:17:07.283Z,98.79
2022-08-23T17:19:54.422Z,100.00
2022-08-23T17:22:43.063Z,100.00
2022-08-23T17:25:30.598Z,95.33
2022-08-23T17:28:19.504Z,95.66
2022-08-23T17:31:07.084Z,93.67
2022-08-23T17:33:54.117Z,95.92
2022-08-23T17:36:47.635Z,97.53
2022-08-23T17:39:34.532Z,99.04
2022-08-23T17:42:21.491Z,100.00
2022-08-23T17:45:10.697Z,100.00
2022-08-23T17:47:57.559Z,100.00
2022-08-23T17:50:46.249Z,100.00
2022-08-23T17:53:32.656Z,100.00
2022-08-23T17:56:20.034Z,100.00
2022-08-23T17:59:08.069Z,100.00
2022-08-23T18:01:56.430Z,100.00
2022-08-23T18:04:44.755Z,100.00
2022-08-23T18:07:32.731Z,100.00
2022-08-23T18:10:20.284Z,100.00
2022-08-23T18:13:07.543Z,100.00
2022-08-23T18:15:54.748Z,100.00
2022-08-23T18:18:43.656Z,100.00
2022-08-23T18:21:31.095Z,100.00
2022-08-23T18:24:18.882Z,100.00
2022-08-23T18:27:23.567Z,100.00
2022-08-23T18:30:12.233Z,100.00
2022-08-23T18:32:59.415Z,100.00
2022-08-23T18:35:48.069Z,100.00
2022-08-23T18:38:35.674Z,100.00
2022-08-23T18:41:22.661Z,100.00
2022-08-23T18:44:09.689Z,100.00
2022-08-23T18:46:56.072Z,100.00
2022-08-23T18:49:42.872Z,100.00
2022-08-23T18:52:32.421Z,100.00
2022-08-23T18:55:20.304Z,100.00
2022-08-23T18:58:08.078Z,100.00
2022-08-23T19:00:54.879Z,100.00
2022-08-23T19:03:42.181Z,100.00
2022-08-23T19:06:29.939Z,100.00
2022-08-23T19:09:17.948Z,100.00
2022-08-23T19:12:07.945Z,100.00
2022-08-23T19:14:54.572Z,100.00
2022-08-23T19:17:41.198Z,100.00
2022-08-23T19:20:28.224Z,100.00
2022-08-23T19:23:15.096Z,100.00
2022-08-23T19:26:07.933Z,100.00
2022-08-23T19:28:56.250Z,100.00
2022-08-23T19:31:46.729Z,100.00
2022-08-23T19:34:33.606Z,100.00
2022-08-23T19:37:22.952Z,100.00
2022-08-23T19:40:11.334Z,100.00
2022-08-23T19:42:59.886Z,100.00
2022-08-23T19:45:46.686Z,100.00
2022-08-23T19:48:33.942Z,100.00
2022-08-23T19:51:22.407Z,100.00
2022-08-23T19:54:11.904Z,100.00
2022-08-23T19:57:01.615Z,100.00
2022-08-23T19:59:50.362Z,100.00
2022-08-23T20:02:37.720Z,100.00
2022-08-23T20:05:24.889Z,100.00
2022-08-23T20:08:12.514Z,100.00
2022-08-23T20:10:59.840Z,100.00
2022-08-23T20:13:48.584Z,100.00
2022-08-23T20:16:40.954Z,100.00
2022-08-23T20:19:28.899Z,100.00
2022-08-23T20:22:33.574Z,100.00
2022-08-23T20:25:21.075Z,100.00
2022-08-23T20:28:08.879Z,100.00
2022-08-23T20:30:56.243Z,100.00
2022-08-23T20:33:46.414Z,100.00
2022-08-23T20:36:35.039Z,100.00
2022-08-23T20:39:24.443Z,100.00
2022-08-23T20:42:12.438Z,100.00
2022-08-23T20:45:01.330Z,100.00
2022-08-23T20:47:48.488Z,100.00
2022-08-23T20:50:37.510Z,100.00
2022-08-23T20:53:25.208Z,100.00
2022-08-23T20:56:12.796Z,100.00
2022-08-23T20:59:00.112Z,100.00
2022-08-23T21:01:47.365Z,100.00
2022-08-23T21:04:33.956Z,100.00
2022-08-23T21:07:22.032Z,100.00
2022-08-23T21:10:10.051Z,100.00
2022-08-23T21:12:56.907Z,100.00
2022-08-23T21:15:43.928Z,100.00
2022-08-23T21:18:30.578Z,100.00
2022-08-23T21:21:21.554Z,100.00
2022-08-23T21:24:11.433Z,100.00
2022-08-23T21:26:58.295Z,100.00
2022-08-23T21:29:45.349Z,100.00
2022-08-23T21:32:32.188Z,100.00
2022-08-23T21:35:24.579Z,100.00
2022-08-23T21:38:12.350Z,100.00
2022-08-23T21:41:05.200Z,100.00
2022-08-23T21:43:51.899Z,100.00
2022-08-23T21:46:38.676Z,100.00
2022-08-23T21:49:25.624Z,100.00
2022-08-23T21:52:12.393Z,100.00
2022-08-23T21:54:59.241Z,100.00
2022-08-23T21:57:47.412Z,100.00
2022-08-23T22:00:34.636Z,100.00
2022-08-23T22:03:21.088Z,100.00
2022-08-23T22:06:13.032Z,100.00
2022-08-23T22:08:59.568Z,100.00
2022-08-23T22:11:48.206Z,100.00
2022-08-23T22:14:36.610Z,100.00
2022-08-23T22:17:23.118Z,100.00
2022-08-23T22:20:13.566Z,100.00
2022-08-23T22:23:00.849Z,100.00
2022-08-23T22:25:48.365Z,100.00
2022-08-23T22:28:36.077Z,100.00
2022-08-23T22:31:24.096Z,100.00
2022-08-23T22:34:12.596Z,100.00
2022-08-23T22:36:59.476Z,100.00
2022-08-23T22:39:46.416Z,100.00
2022-08-23T22:42:33.673Z,100.00
2022-08-23T22:45:22.581Z,100.00
2022-08-23T22:48:10.993Z,100.00
2022-08-23T22:51:06.581Z,100.00
2022-08-23T22:53:56.078Z,100.00
2022-08-23T22:56:45.241Z,100.00
2022-08-23T22:59:33.008Z,100.00
2022-08-23T23:02:20.251Z,100.00
2022-08-23T23:05:09.272Z,100.00
2022-08-23T23:08:13.370Z,100.00
2022-08-23T23:11:01.805Z,100.00
2022-08-23T23:13:48.726Z,100.00
2022-08-23T23:16:35.664Z,100.00
2022-08-23T23:19:40.031Z,100.00
2022-08-23T23:22:28.211Z,100.00
2022-08-23T23:25:15.200Z,100.00
2022-08-23T23:28:02.656Z,100.00
2022-08-23T23:30:51.804Z,100.00
2022-08-23T23:33:38.484Z,100.00
2022-08-23T23:36:25.409Z,100.00
2022-08-23T23:39:14.645Z,100.00
2022-08-23T23:42:01.282Z,100.00
2022-08-23T23:44:47.975Z,100.00
2022-08-23T23:47:35.370Z,100.00
2022-08-23T23:50:23.001Z,100.00
2022-08-23T23:53:09.688Z,100.00
2022-08-23T23:56:02.389Z,100.00
2022-08-23T23:58:49.372Z,100.00
